createdAt,value
2018-08-09T00:02:07.987Z,12.10
2018-08-09T00:04:36.666Z,11.83
2018-08-09T00:07:05.460Z,11.50
2018-08-09T00:09:34.260Z,12.37
2018-08-09T00:12:04.296Z,12.07
2018-08-09T00:14:34.613Z,11.93
2018-08-09T00:17:03.264Z,12.97
2018-08-09T00:19:31.914Z,12.70
2018-08-09T00:22:01.593Z,13.07
2018-08-09T00:24:31.612Z,12.70
2018-08-09T00:27:01.789Z,12.73
2018-08-09T00:29:30.435Z,12.63
2018-08-09T00:31:59.119Z,12.30
2018-08-09T00:34:32.137Z,12.97
2018-08-09T00:37:00.808Z,13.17
2018-08-09T00:39:29.827Z,12.43
2018-08-09T00:42:04.392Z,12.03
2018-08-09T00:44:33.101Z,12.00
2018-08-09T00:47:12.546Z,12.10
2018-08-09T00:49:41.224Z,12.47
2018-08-09T00:52:09.923Z,13.30
2018-08-09T00:54:38.581Z,12.23
2018-08-09T00:57:07.228Z,12.67
2018-08-09T00:59:40.805Z,13.03
2018-08-09T01:02:09.474Z,13.60
2018-08-09T01:04:40.817Z,13.30
2018-08-09T01:07:13.190Z,13.83
2018-08-09T01:09:41.839Z,14.00
2018-08-09T01:12:10.568Z,13.33
2018-08-09T01:14:39.236Z,13.03
2018-08-09T01:17:08.106Z,13.40
2018-08-09T01:19:36.794Z,13.13
2018-08-09T01:22:08.675Z,12.30
2018-08-09T01:24:37.336Z,13.13
2018-08-09T01:27:09.619Z,13.60
2018-08-09T01:29:39.953Z,12.23
2018-08-09T01:32:08.754Z,13.03
2018-08-09T01:37:16.328Z,12.90
2018-08-09T01:39:50.615Z,13.20
2018-08-09T01:42:30.043Z,13.20
2018-08-09T01:45:00.332Z,13.53
2018-08-09T01:47:29.139Z,12.63
2018-08-09T01:49:57.791Z,12.60
2018-08-09T01:52:26.479Z,13.50
2018-08-09T01:54:55.184Z,13.13
2018-08-09T01:57:23.862Z,15.10
2018-08-09T01:59:52.513Z,14.53
2018-08-09T02:02:21.165Z,14.77
2018-08-09T02:04:49.861Z,14.60
2018-08-09T02:07:18.513Z,15.63
2018-08-09T02:09:47.156Z,15.87
2018-08-09T02:12:17.808Z,14.87
2018-08-09T02:14:47.384Z,15.17
2018-08-09T02:17:16.084Z,15.07
2018-08-09T02:19:44.760Z,15.23
2018-08-09T02:22:13.406Z,14.63
2018-08-09T02:24:42.047Z,14.90
2018-08-09T02:27:10.780Z,15.33
2018-08-09T02:29:40.845Z,15.23
2018-08-09T02:32:10.727Z,14.63
2018-08-09T02:34:39.910Z,15.27
2018-08-09T02:37:08.724Z,15.37
2018-08-09T02:39:37.424Z,14.87
2018-08-09T02:42:06.084Z,14.57
2018-08-09T02:44:34.747Z,14.63
2018-08-09T02:47:03.396Z,16.07
2018-08-09T02:49:32.311Z,15.80
2018-08-09T02:52:00.975Z,15.20
2018-08-09T02:54:29.654Z,15.37
2018-08-09T02:56:59.582Z,14.33
2018-08-09T02:59:28.662Z,14.93
2018-08-09T03:01:57.335Z,14.13
2018-08-09T03:04:26.008Z,16.30
2018-08-09T03:06:54.713Z,15.10
2018-08-09T03:09:23.339Z,15.87
2018-08-09T03:11:52.009Z,16.13
2018-08-09T03:14:20.624Z,15.37
2018-08-09T03:16:49.325Z,15.10
2018-08-09T03:19:17.986Z,15.43
2018-08-09T03:21:46.680Z,15.67
2018-08-09T03:24:17.516Z,16.10
2018-08-09T03:26:46.209Z,15.30
2018-08-09T03:29:14.845Z,16.63
2018-08-09T03:31:43.524Z,15.60
2018-08-09T03:34:12.164Z,15.87
2018-08-09T03:36:40.902Z,15.13
2018-08-09T03:39:11.011Z,16.67
2018-08-09T03:41:39.670Z,15.83
2018-08-09T03:44:08.542Z,15.07
2018-08-09T03:46:37.264Z,14.30
2018-08-09T03:49:05.984Z,13.87
2018-08-09T03:51:34.671Z,13.73
2018-08-09T03:54:03.396Z,13.87
2018-08-09T03:56:32.027Z,13.33
2018-08-09T03:59:00.657Z,13.87
2018-08-09T04:01:29.298Z,13.53
2018-08-09T04:03:57.957Z,13.33
2018-08-09T04:06:26.621Z,13.63
2018-08-09T04:08:55.307Z,14.13
2018-08-09T04:11:23.957Z,13.10
2018-08-09T04:13:52.598Z,13.13
2018-08-09T04:16:21.264Z,13.57
2018-08-09T04:18:49.921Z,13.67
2018-08-09T04:21:18.602Z,13.67
2018-08-09T04:23:47.289Z,13.53
2018-08-09T04:26:15.982Z,14.20
2018-08-09T04:28:44.625Z,12.87
2018-08-09T04:31:13.268Z,13.37
2018-08-09T04:33:41.939Z,14.53
2018-08-09T04:36:10.608Z,12.73
2018-08-09T04:38:39.256Z,14.37
2018-08-09T04:41:07.959Z,14.10
2018-08-09T04:43:36.627Z,14.93
2018-08-09T04:46:05.408Z,14.33
2018-08-09T04:48:34.072Z,14.83
2018-08-09T04:51:02.736Z,13.77
2018-08-09T04:53:31.429Z,13.90
2018-08-09T04:56:00.069Z,13.60
2018-08-09T04:58:28.735Z,14.70
2018-08-09T05:00:57.444Z,15.20
2018-08-09T05:03:26.078Z,14.87
2018-08-09T05:05:54.766Z,14.40
2018-08-09T05:08:23.446Z,14.30
2018-08-09T05:10:52.097Z,15.33
2018-08-09T05:13:20.828Z,15.90
2018-08-09T05:15:49.516Z,13.87
2018-08-09T05:18:18.212Z,14.17
2018-08-09T05:20:48.276Z,14.93
2018-08-09T05:23:16.990Z,15.73
2018-08-09T05:25:45.652Z,15.10
2018-08-09T05:28:14.280Z,16.37
2018-08-09T05:30:42.940Z,16.13
2018-08-09T05:33:11.640Z,14.97
2018-08-09T05:35:40.276Z,15.10
2018-08-09T05:38:10.950Z,14.60
2018-08-09T05:40:39.627Z,15.50
2018-08-09T05:43:08.286Z,15.40
2018-08-09T05:45:36.925Z,15.97
2018-08-09T05:48:05.776Z,14.80
2018-08-09T05:50:34.447Z,15.23
2018-08-09T05:53:03.169Z,15.73
2018-08-09T05:55:31.808Z,16.57
2018-08-09T05:58:00.587Z,15.00
2018-08-09T06:00:29.285Z,16.07
2018-08-09T06:02:58.002Z,15.73
2018-08-09T06:05:26.645Z,15.80
2018-08-09T06:07:55.289Z,15.87
2018-08-09T06:10:23.946Z,15.73
2018-08-09T06:12:52.609Z,15.80
2018-08-09T06:15:21.249Z,15.17
2018-08-09T06:17:51.241Z,15.63
2018-08-09T06:20:22.816Z,15.63
2018-08-09T06:22:51.491Z,16.17
2018-08-09T06:25:20.164Z,15.17
2018-08-09T06:27:48.858Z,15.57
2018-08-09T06:30:17.533Z,15.60
2018-08-09T06:32:46.212Z,15.47
2018-08-09T06:35:14.876Z,14.63
2018-08-09T06:37:43.551Z,15.70
2018-08-09T06:40:13.395Z,15.87
2018-08-09T06:42:43.313Z,15.03
2018-08-09T06:45:12.729Z,16.90
2018-08-09T06:47:41.482Z,15.90
2018-08-09T06:50:11.282Z,15.83
2018-08-09T06:52:40.071Z,15.47
2018-08-09T06:55:09.469Z,14.90
2018-08-09T06:57:38.173Z,15.30
2018-08-09T07:00:09.924Z,15.17
2018-08-09T07:02:38.556Z,15.47
2018-08-09T07:05:07.224Z,15.60
2018-08-09T07:07:35.913Z,15.53
2018-08-09T07:10:05.356Z,14.47
2018-08-09T07:12:34.016Z,15.90
2018-08-09T07:15:02.702Z,16.40
2018-08-09T07:17:36.683Z,15.27
2018-08-09T07:20:07.129Z,16.43
2018-08-09T07:22:40.055Z,14.87
2018-08-09T07:25:09.140Z,13.97
2018-08-09T07:27:38.172Z,16.63
2018-08-09T07:30:09.001Z,14.57
2018-08-09T07:35:14.660Z,13.07
2018-08-09T07:37:43.396Z,12.30
2018-08-09T07:40:12.723Z,12.53
2018-08-09T07:42:42.360Z,13.50
2018-08-09T07:45:12.470Z,11.70
2018-08-09T07:47:43.134Z,13.57
2018-08-09T07:50:11.832Z,12.70
2018-08-09T07:52:42.261Z,12.87
2018-08-09T07:55:11.128Z,11.57
2018-08-09T07:57:40.111Z,12.27
2018-08-09T08:00:12.555Z,11.08
2018-08-09T08:02:43.845Z,11.47
2018-08-09T08:05:17.884Z,10.90
2018-08-09T08:07:46.585Z,11.43
2018-08-09T08:10:15.292Z,11.43
2018-08-09T08:12:43.953Z,10.70
2018-08-09T08:15:12.598Z,10.77
2018-08-09T08:17:41.316Z,10.40
2018-08-09T08:20:10.159Z,10.17
2018-08-09T08:22:38.848Z,10.33
2018-08-09T08:25:07.755Z,10.80
2018-08-09T08:27:36.448Z,10.50
2018-08-09T08:30:10.805Z,10.47
2018-08-09T08:32:41.935Z,9.80
2018-08-09T08:35:11.301Z,9.27
2018-08-09T08:37:41.651Z,8.60
2018-08-09T08:40:11.647Z,9.80
2018-08-09T08:42:40.329Z,8.73
2018-08-09T08:45:12.390Z,9.73
2018-08-09T08:47:41.739Z,9.70
2018-08-09T08:50:11.723Z,8.57
2018-08-09T08:52:41.447Z,9.30
2018-08-09T08:55:11.517Z,12.03
2018-08-09T08:57:40.190Z,11.97
2018-08-09T09:00:10.472Z,10.03
2018-08-09T09:02:39.516Z,11.53
2018-08-09T09:05:10.286Z,11.30
2018-08-09T09:07:39.363Z,9.23
2018-08-09T09:10:09.582Z,11.07
2018-08-09T09:12:38.389Z,10.40
2018-08-09T09:15:12.779Z,12.27
2018-08-09T09:17:42.463Z,11.33
2018-08-09T09:20:13.319Z,12.30
2018-08-09T09:22:42.575Z,10.20
2018-08-09T09:25:11.732Z,10.70
2018-08-09T09:27:40.387Z,10.63
2018-08-09T09:30:12.690Z,9.50
2018-08-09T09:32:41.392Z,9.80
2018-08-09T09:35:10.237Z,9.73
2018-08-09T09:37:39.551Z,9.40
2018-08-09T09:40:08.854Z,8.77
2018-08-09T09:42:37.947Z,7.93
2018-08-09T09:45:07.473Z,9.23
2018-08-09T09:47:36.146Z,8.50
2018-08-09T09:50:05.580Z,8.03
2018-08-09T09:52:35.085Z,9.37
2018-08-09T09:55:03.833Z,8.33
2018-08-09T09:57:32.488Z,7.77
2018-08-09T10:00:01.132Z,9.13
2018-08-09T10:02:29.872Z,8.17
2018-08-09T10:04:58.534Z,9.07
2018-08-09T10:07:27.314Z,8.60
2018-08-09T10:09:56.012Z,9.10
2018-08-09T10:12:24.668Z,9.07
2018-08-09T10:14:53.400Z,9.60
2018-08-09T10:17:22.044Z,9.50
2018-08-09T10:19:50.767Z,8.60
2018-08-09T10:22:19.466Z,8.80
2018-08-09T10:24:48.157Z,8.30
2018-08-09T10:27:16.851Z,9.07
2018-08-09T10:29:45.576Z,8.67
2018-08-09T10:32:14.316Z,9.23
2018-08-09T10:34:45.837Z,9.30
2018-08-09T10:37:14.540Z,9.60
2018-08-09T10:39:47.128Z,8.70
2018-08-09T10:42:16.920Z,8.97
2018-08-09T10:44:45.571Z,9.73
2018-08-09T10:47:14.935Z,8.93
2018-08-09T10:49:44.705Z,9.15
2018-08-09T10:52:14.054Z,6.72
2018-08-09T10:54:43.180Z,6.12
2018-08-09T10:57:11.889Z,6.20
2018-08-09T11:03:34.535Z,8.27
2018-08-09T11:06:03.607Z,7.40
2018-08-09T11:08:33.271Z,7.13
2018-08-09T11:11:09.125Z,6.30
2018-08-09T11:13:38.475Z,6.47
2018-08-09T11:16:07.140Z,5.93
2018-08-09T11:18:35.785Z,5.53
2018-08-09T11:21:04.470Z,6.00
2018-08-09T11:23:33.586Z,5.93
2018-08-09T11:26:02.270Z,6.20
2018-08-09T11:28:31.266Z,6.67
2018-08-09T11:30:59.933Z,6.70
2018-08-09T11:33:28.564Z,7.17
2018-08-09T11:35:57.219Z,7.03
2018-08-09T11:38:25.880Z,7.07
2018-08-09T11:40:54.531Z,6.57
2018-08-09T11:43:23.192Z,6.73
2018-08-09T11:45:51.827Z,6.63
2018-08-09T11:48:20.504Z,7.07
2018-08-09T11:50:49.125Z,6.80
2018-08-09T11:53:17.755Z,7.00
2018-08-09T11:55:46.388Z,7.37
2018-08-09T11:58:15.029Z,7.03
2018-08-09T12:00:43.723Z,5.53
2018-08-09T12:03:12.448Z,5.47
2018-08-09T12:05:41.085Z,3.63
2018-08-09T12:08:09.744Z,4.03
2018-08-09T12:10:38.407Z,1.73
2018-08-09T12:13:07.095Z,1.20
2018-08-09T12:15:35.820Z,1.30
2018-08-09T12:18:04.513Z,0.93
2018-08-09T12:20:33.280Z,0.80
2018-08-09T12:23:01.945Z,0.80
2018-08-09T12:25:30.589Z,1.00
2018-08-09T12:27:59.282Z,1.70
2018-08-09T12:30:28.073Z,1.67
2018-08-09T12:32:56.868Z,1.47
2018-08-09T12:35:25.572Z,1.30
2018-08-09T12:37:54.300Z,1.00
2018-08-09T12:40:22.963Z,1.00
2018-08-09T12:42:51.801Z,1.00
2018-08-09T12:45:20.602Z,1.00
2018-08-09T12:47:49.340Z,1.30
2018-08-09T12:50:18.043Z,1.40
2018-08-09T12:52:46.692Z,1.43
2018-08-09T12:55:15.478Z,1.27
2018-08-09T12:57:44.120Z,1.40
2018-08-09T13:00:14.465Z,1.30
2018-08-09T13:02:43.205Z,1.80
2018-08-09T13:05:13.037Z,1.40
2018-08-09T13:07:42.304Z,1.67
2018-08-09T13:10:12.388Z,1.80
2018-08-09T13:12:41.172Z,1.57
2018-08-09T13:15:12.109Z,1.33
2018-08-09T13:17:41.296Z,1.40
2018-08-09T13:20:12.743Z,1.20
2018-08-09T13:22:41.480Z,1.00
2018-08-09T13:25:10.224Z,1.10
2018-08-09T13:27:39.064Z,1.10
2018-08-09T13:30:10.513Z,1.20
2018-08-09T13:32:39.194Z,0.80
2018-08-09T13:35:08.346Z,0.80
2018-08-09T13:37:37.104Z,0.90
2018-08-09T13:40:07.464Z,0.60
2018-08-09T13:42:36.356Z,0.80
2018-08-09T13:45:06.124Z,0.60
2018-08-09T13:47:34.811Z,0.60
2018-08-09T13:50:03.550Z,0.90
2018-08-09T13:52:32.295Z,0.70
2018-08-09T13:55:00.998Z,0.70
2018-08-09T13:57:29.660Z,1.63
2018-08-09T13:59:58.352Z,2.10
2018-08-09T14:02:27.021Z,1.37
2018-08-09T14:04:55.703Z,1.80
2018-08-09T14:07:24.423Z,1.00
2018-08-09T14:09:53.114Z,0.90
2018-08-09T14:12:21.799Z,1.00
2018-08-09T14:14:50.552Z,0.60
2018-08-09T14:17:19.254Z,0.87
2018-08-09T14:19:48.005Z,0.70
2018-08-09T14:22:16.743Z,0.90
2018-08-09T14:24:45.610Z,0.80
2018-08-09T14:27:14.219Z,0.80
2018-08-09T14:29:42.937Z,0.63
2018-08-09T14:32:11.733Z,0.70
2018-08-09T14:34:40.428Z,0.80
2018-08-09T14:37:09.077Z,1.27
2018-08-09T14:39:37.768Z,0.87
2018-08-09T14:42:06.620Z,0.70
2018-08-09T14:44:35.279Z,0.80
2018-08-09T14:47:04.041Z,0.90
2018-08-09T14:49:32.838Z,0.60
2018-08-09T14:52:01.675Z,0.80
2018-08-09T14:54:30.480Z,0.90
2018-08-09T14:56:59.304Z,1.07
2018-08-09T14:59:27.974Z,0.70
2018-08-09T15:01:57.060Z,0.70
2018-08-09T15:04:25.753Z,0.80
2018-08-09T15:06:54.462Z,0.80
2018-08-09T15:09:23.252Z,0.83
2018-08-09T15:11:52.051Z,1.17
2018-08-09T15:14:20.748Z,1.20
2018-08-09T15:16:49.434Z,0.90
2018-08-09T15:19:18.175Z,0.90
2018-08-09T15:21:46.928Z,0.90
2018-08-09T15:24:15.658Z,0.80
2018-08-09T15:26:44.288Z,1.10
2018-08-09T15:29:12.939Z,1.00
2018-08-09T15:31:41.651Z,1.00
2018-08-09T15:34:10.357Z,0.87
2018-08-09T15:36:38.985Z,1.20
2018-08-09T15:39:10.965Z,1.00
2018-08-09T15:41:40.503Z,1.00
2018-08-09T15:44:09.839Z,1.00
2018-08-09T15:46:38.607Z,1.40
2018-08-09T15:49:07.265Z,2.17
2018-08-09T15:51:35.936Z,1.37
2018-08-09T15:54:04.822Z,2.60
2018-08-09T15:56:33.530Z,2.70
2018-08-09T15:59:02.309Z,1.67
2018-08-09T16:01:31.100Z,1.83
2018-08-09T16:03:59.820Z,1.50
2018-08-09T16:06:28.580Z,1.33
2018-08-09T16:08:57.759Z,1.20
2018-08-09T16:11:26.589Z,1.30
2018-08-09T16:13:55.342Z,1.20
2018-08-09T16:16:24.110Z,1.20
2018-08-09T16:18:52.800Z,1.20
2018-08-09T16:21:21.521Z,1.10
2018-08-09T16:23:50.207Z,1.30
2018-08-09T16:26:19.056Z,1.00
2018-08-09T16:28:47.689Z,1.10
2018-08-09T16:31:16.375Z,1.00
2018-08-09T16:33:45.075Z,1.00
2018-08-09T16:36:13.743Z,1.10
2018-08-09T16:38:42.491Z,1.03
2018-08-09T16:41:11.233Z,1.30
2018-08-09T16:43:39.944Z,1.50
2018-08-09T16:46:08.752Z,1.37
2018-08-09T16:48:37.448Z,1.40
2018-08-09T16:51:06.163Z,1.10
2018-08-09T16:53:34.936Z,1.63
2018-08-09T16:56:03.693Z,1.23
2018-08-09T16:58:32.505Z,1.43
2018-08-09T17:01:01.277Z,1.43
2018-08-09T17:03:30.548Z,1.73
2018-08-09T17:05:59.217Z,1.50
2018-08-09T17:08:27.929Z,1.30
2018-08-09T17:10:56.736Z,1.90
2018-08-09T17:13:25.483Z,1.90
2018-08-09T17:15:54.268Z,1.50
2018-08-09T17:18:22.916Z,1.60
2018-08-09T17:20:51.751Z,1.47
2018-08-09T17:23:20.477Z,1.90
2018-08-09T17:25:49.140Z,1.60
2018-08-09T17:28:17.860Z,1.50
2018-08-09T17:30:47.577Z,1.30
2018-08-09T17:33:16.256Z,1.23
2018-08-09T17:35:44.931Z,1.50
2018-08-09T17:38:13.584Z,1.33
2018-08-09T17:40:42.300Z,1.70
2018-08-09T17:43:10.970Z,1.60
2018-08-09T17:45:39.689Z,1.53
2018-08-09T17:48:08.437Z,1.67
2018-08-09T17:50:37.160Z,1.67
2018-08-09T17:53:07.171Z,1.70
2018-08-09T17:55:35.968Z,1.80
2018-08-09T17:58:04.980Z,1.90
2018-08-09T18:00:34.720Z,1.77
2018-08-09T18:03:03.577Z,1.60
2018-08-09T18:05:32.267Z,1.60
2018-08-09T18:08:01.044Z,1.70
2018-08-09T18:10:31.781Z,1.73
2018-08-09T18:13:00.560Z,2.00
2018-08-09T18:15:30.019Z,1.53
2018-08-09T18:17:59.368Z,2.00
2018-08-09T18:20:31.572Z,1.83
2018-08-09T18:23:00.540Z,1.77
2018-08-09T18:25:29.792Z,1.73
2018-08-09T18:27:58.737Z,1.50
2018-08-09T18:30:27.526Z,1.80
2018-08-09T18:32:56.285Z,2.50
2018-08-09T18:35:25.049Z,2.37
2018-08-09T18:37:53.788Z,2.57
2018-08-09T18:40:24.874Z,2.60
2018-08-09T18:42:53.785Z,3.20
2018-08-09T18:45:22.832Z,4.50
2018-08-09T18:47:51.477Z,5.53
2018-08-09T18:50:23.936Z,5.80
2018-08-09T18:52:52.662Z,6.40
2018-08-09T18:55:21.452Z,6.00
2018-08-09T18:57:50.332Z,5.47
2018-08-09T19:00:22.041Z,5.57
2018-08-09T19:02:51.207Z,4.27
2018-08-09T19:05:20.018Z,3.20
2018-08-09T19:07:48.873Z,3.07
2018-08-09T19:10:21.137Z,2.87
2018-08-09T19:12:50.135Z,2.13
2018-08-09T19:15:19.108Z,2.30
2018-08-09T19:17:47.962Z,2.53
2018-08-09T19:20:25.464Z,2.47
2018-08-09T19:22:54.748Z,2.83
2018-08-09T19:25:23.511Z,3.00
2018-08-09T19:27:52.287Z,2.53
2018-08-09T19:30:22.737Z,2.20
2018-08-09T19:32:51.555Z,2.17
2018-08-09T19:35:20.979Z,2.47
2018-08-09T19:37:49.693Z,3.13
2018-08-09T19:40:20.597Z,2.53
2018-08-09T19:42:49.381Z,2.17
2018-08-09T19:45:18.756Z,2.20
2018-08-09T19:47:47.552Z,2.00
2018-08-09T19:50:18.049Z,1.80
2018-08-09T19:52:46.771Z,1.87
2018-08-09T19:55:16.861Z,1.97
2018-08-09T19:57:46.869Z,1.97
2018-08-09T20:00:20.711Z,1.80
2018-08-09T20:02:50.186Z,2.10
2018-08-09T20:05:18.948Z,1.70
2018-08-09T20:07:47.593Z,1.90
2018-08-09T20:10:16.364Z,1.83
2018-08-09T20:12:45.852Z,3.10
2018-08-09T20:15:16.842Z,2.40
2018-08-09T20:17:45.697Z,1.97
2018-08-09T20:20:15.602Z,1.73
2018-08-09T20:22:44.410Z,1.80
2018-08-09T20:25:13.579Z,2.50
2018-08-09T20:27:42.927Z,1.77
2018-08-09T20:30:14.255Z,1.70
2018-08-09T20:32:43.544Z,2.00
2018-08-09T20:35:13.887Z,2.37
2018-08-09T20:37:43.564Z,2.00
2018-08-09T20:40:12.761Z,1.90
2018-08-09T20:42:41.756Z,2.43
2018-08-09T20:45:12.158Z,2.63
2018-08-09T20:47:41.776Z,2.20
2018-08-09T20:50:14.056Z,2.30
2018-08-09T20:52:43.729Z,2.10
2018-08-09T20:55:12.600Z,1.90
2018-08-09T20:57:42.369Z,1.90
2018-08-09T21:00:14.427Z,2.17
2018-08-09T21:02:43.918Z,3.03
2018-08-09T21:05:22.370Z,3.03
2018-08-09T21:07:52.287Z,2.57
2018-08-09T21:10:21.259Z,3.03
2018-08-09T21:12:50.000Z,2.57
2018-08-09T21:15:19.525Z,2.83
2018-08-09T21:17:48.309Z,3.13
2018-08-09T21:20:17.123Z,3.00
2018-08-09T21:22:47.037Z,2.10
2018-08-09T21:25:15.767Z,2.43
2018-08-09T21:27:44.924Z,2.20
2018-08-09T21:30:16.685Z,2.30
2018-08-09T21:32:46.064Z,1.70
2018-08-09T21:35:14.777Z,1.93
2018-08-09T21:37:44.090Z,2.93
2018-08-09T21:40:13.484Z,2.70
2018-08-09T21:42:42.160Z,1.87
2018-08-09T21:45:14.324Z,2.07
2018-08-09T21:47:43.106Z,2.13
2018-08-09T21:50:14.048Z,2.37
2018-08-09T21:52:42.785Z,2.23
2018-08-09T21:55:12.282Z,2.47
2018-08-09T21:57:41.847Z,1.83
2018-08-09T22:00:21.052Z,2.40
2018-08-09T22:02:49.796Z,1.73
2018-08-09T22:05:23.952Z,1.70
2018-08-09T22:07:58.189Z,2.43
2018-08-09T22:10:32.306Z,2.03
2018-08-09T22:13:06.445Z,1.50
2018-08-09T22:15:40.454Z,1.63
2018-08-09T22:18:14.344Z,2.40
2018-08-09T22:20:48.484Z,2.13
2018-08-09T22:23:17.257Z,2.40
2018-08-09T22:25:45.964Z,2.07
2018-08-09T22:28:14.640Z,2.00
2018-08-09T22:30:43.429Z,2.27
2018-08-09T22:33:12.060Z,2.20
2018-08-09T22:35:40.718Z,2.43
2018-08-09T22:38:09.396Z,1.70
2018-08-09T22:40:38.067Z,1.80
2018-08-09T22:43:06.760Z,1.60
2018-08-09T22:45:35.416Z,1.70
2018-08-09T22:48:04.074Z,1.73
2018-08-09T22:50:32.749Z,2.50
2018-08-09T22:53:01.390Z,2.13
2018-08-09T22:55:30.068Z,1.80
2018-08-09T22:57:58.750Z,1.80
2018-08-09T23:00:27.468Z,1.93
2018-08-09T23:02:56.244Z,1.87
2018-08-09T23:05:25.032Z,1.90
2018-08-09T23:07:53.752Z,2.63
2018-08-09T23:10:22.448Z,1.87
2018-08-09T23:12:51.092Z,1.97
2018-08-09T23:15:19.896Z,2.13
2018-08-09T23:17:48.581Z,2.40
2018-08-09T23:20:17.706Z,2.30
2018-08-09T23:22:46.348Z,2.27
2018-08-09T23:25:15.093Z,1.60
2018-08-09T23:27:43.949Z,1.40
2018-08-09T23:30:12.876Z,1.50
2018-08-09T23:32:41.516Z,1.70
2018-08-09T23:35:11.008Z,1.57
2018-08-09T23:37:39.674Z,2.07
2018-08-09T23:40:09.996Z,2.07
2018-08-09T23:42:39.072Z,1.57
2018-08-09T23:45:09.398Z,1.70
2018-08-09T23:47:39.325Z,1.60
2018-08-09T23:50:09.844Z,1.50
2018-08-09T23:52:39.215Z,2.00
2018-08-09T23:55:10.073Z,1.63
2018-08-09T23:57:38.980Z,2.20
